Main page
METAR-TAF:

METAR-TAF

Airports :

Frankfurt–Hahn Airport

Hahn, Germany

latitude: 49-57N, longitude: 007-16E, elevation: 491 m

Current weather observation

The report was made 33 minutes ago, at 14:20 UTC
Wind 11 kt from the Northwest, varying between West/Northwest and North
Temperature 14°C
Humidity 55%
Pressure 1026 hPa
Visibility 10 km or more
Few clouds at a height of 4000 ft
Scattered clouds at a height of 6500 ft

METAR: EDFH 221420Z 32011KT 290V350 9999 FEW040 SCT065 14/05 Q1026

Time: 16:53 (14:53 UTC)

Forecast

The report was made 3 hours and 53 minutes ago, at 11:00 UTC
Forecast valid from 22 at 12 UTC to 23 at 12 UTC
Wind 10 kt from the West/Northwest
Visibility 10 km or more
Scattered clouds at a height of 3500 ft
Becoming
from 22 at 20 UTC to 22 at 22 UTC
Wind 5 kt from the Northwest

TAF: EDFH 221100Z 2212/2312 30010KT 9999 SCT035 BECMG 2220/2222 31005KT

Weather observations and forecasts of more than 4000 airports (METAR and TAF reports).

The available stations are represented by yellow and red dots on the map.

Hover mouse over dot to see the name of the station.

Then click to see weather observations and forecasts.

To change the map : click on the green buttons with a black cross to zoom in, on the green button with a dash to zoom out, or on the green arrows for adjacent maps.


METAR-TAF: